createdAt,value
2022-10-09T00:01:36.798Z,9.00
2022-10-09T00:06:35.899Z,9.00
2022-10-09T00:11:35.083Z,8.90
2022-10-09T00:16:33.983Z,8.80
2022-10-09T00:21:34.902Z,8.80
2022-10-09T00:26:33.892Z,8.70
2022-10-09T00:31:32.698Z,8.70
2022-10-09T00:36:31.701Z,8.60
2022-10-09T00:41:30.743Z,8.50
2022-10-09T00:46:29.848Z,8.50
2022-10-09T00:51:28.751Z,8.40
2022-10-09T00:56:27.768Z,8.40
2022-10-09T01:01:26.896Z,8.40
2022-10-09T01:06:25.833Z,8.40
2022-10-09T01:11:24.818Z,8.40
2022-10-09T01:16:24.182Z,8.40
2022-10-09T01:21:22.729Z,8.40
2022-10-09T01:26:21.842Z,8.40
2022-10-09T01:31:21.022Z,8.30
2022-10-09T01:36:19.867Z,8.20
2022-10-09T01:41:18.797Z,8.20
2022-10-09T01:46:17.922Z,8.10
2022-10-09T01:51:16.773Z,8.20
2022-10-09T01:56:16.000Z,8.20
2022-10-09T02:01:14.964Z,8.20
2022-10-09T02:06:13.924Z,8.20
2022-10-09T02:11:14.433Z,8.10
2022-10-09T02:16:13.910Z,8.10
2022-10-09T02:21:12.801Z,8.10
2022-10-09T02:26:11.829Z,8.00
2022-10-09T02:31:10.847Z,8.00
2022-10-09T02:36:09.980Z,8.00
2022-10-09T02:41:08.869Z,8.00
2022-10-09T02:46:07.851Z,7.90
2022-10-09T02:51:06.885Z,7.90
2022-10-09T02:56:05.897Z,7.90
2022-10-09T03:01:04.986Z,7.90
2022-10-09T03:06:03.789Z,7.90
2022-10-09T03:11:03.016Z,7.90
2022-10-09T03:16:01.845Z,7.90
2022-10-09T03:21:00.916Z,7.90
2022-10-09T03:26:00.043Z,7.90
2022-10-09T03:31:02.715Z,7.90
2022-10-09T03:36:01.866Z,7.80
2022-10-09T03:41:00.862Z,7.80
2022-10-09T03:46:01.190Z,7.90
2022-10-09T03:50:59.892Z,7.90
2022-10-09T03:55:58.808Z,7.90
2022-10-09T04:00:58.022Z,7.80
2022-10-09T04:05:56.797Z,7.80
2022-10-09T04:10:55.955Z,7.80
2022-10-09T04:15:54.913Z,7.80
2022-10-09T04:20:53.892Z,7.70
2022-10-09T04:25:52.814Z,7.70
2022-10-09T04:30:51.986Z,7.70
2022-10-09T04:35:51.026Z,7.70
2022-10-09T04:40:49.816Z,7.70
2022-10-09T04:45:48.851Z,7.70
2022-10-09T04:50:50.956Z,7.60
2022-10-09T04:55:49.912Z,7.60
2022-10-09T05:00:49.099Z,7.60
2022-10-09T05:05:47.955Z,7.50
2022-10-09T05:10:46.959Z,7.40
2022-10-09T05:15:45.968Z,7.50
2022-10-09T05:20:44.999Z,7.40
2022-10-09T05:25:44.091Z,7.40
2022-10-09T05:30:42.989Z,7.30
2022-10-09T05:35:41.978Z,7.30
2022-10-09T05:40:41.006Z,7.20
2022-10-09T05:45:40.028Z,7.20
2022-10-09T05:50:38.927Z,7.20
2022-10-09T05:55:37.853Z,7.10
2022-10-09T06:00:36.857Z,7.10
2022-10-09T06:05:35.864Z,7.00
2022-10-09T06:10:34.869Z,7.00
2022-10-09T06:15:33.990Z,7.20
2022-10-09T06:20:32.908Z,7.20
2022-10-09T06:25:31.915Z,7.30
2022-10-09T06:30:34.982Z,7.30
2022-10-09T06:35:31.991Z,7.40
2022-10-09T06:40:31.067Z,7.40
2022-10-09T06:45:29.993Z,7.50
2022-10-09T06:50:28.851Z,7.70
2022-10-09T06:55:28.886Z,7.90
2022-10-09T07:00:28.082Z,8.10
2022-10-09T07:05:27.078Z,8.30
2022-10-09T07:10:25.897Z,8.50
2022-10-09T07:15:25.047Z,8.60
2022-10-09T07:20:24.133Z,8.80
2022-10-09T07:25:22.941Z,9.00
2022-10-09T07:30:22.067Z,9.20
2022-10-09T07:35:20.977Z,9.40
2022-10-09T07:40:19.974Z,9.70
2022-10-09T07:45:18.969Z,9.90
2022-10-09T07:50:17.972Z,10.20
2022-10-09T07:55:16.997Z,10.40
2022-10-09T08:00:16.013Z,10.60
2022-10-09T08:05:15.008Z,10.90
2022-10-09T08:10:14.135Z,11.00
2022-10-09T08:15:13.128Z,11.20
2022-10-09T08:20:12.036Z,11.40
2022-10-09T08:25:11.118Z,11.50
2022-10-09T08:30:10.150Z,11.70
2022-10-09T08:35:09.225Z,12.00
2022-10-09T08:40:08.097Z,12.20
2022-10-09T08:45:07.120Z,12.40
2022-10-09T08:50:07.925Z,12.60
2022-10-09T08:55:07.150Z,12.80
2022-10-09T09:00:05.986Z,13.00
2022-10-09T09:05:05.070Z,13.20
2022-10-09T09:10:04.022Z,13.30
2022-10-09T09:15:03.019Z,13.40
2022-10-09T09:20:02.995Z,13.50
2022-10-09T09:25:03.048Z,13.60
2022-10-09T09:30:02.504Z,13.70
2022-10-09T09:35:02.149Z,13.90
2022-10-09T09:45:02.233Z,14.20
2022-10-09T09:50:01.029Z,14.20
2022-10-09T09:55:00.038Z,14.30
2022-10-09T09:59:59.022Z,14.40
2022-10-09T10:04:58.061Z,14.50
2022-10-09T10:09:56.972Z,14.50
2022-10-09T10:14:56.082Z,14.70
2022-10-09T10:19:54.976Z,14.80
2022-10-09T10:24:54.101Z,15.00
2022-10-09T10:29:52.888Z,15.10
2022-10-09T10:34:52.263Z,15.30
2022-10-09T10:39:50.917Z,15.40
2022-10-09T10:44:50.135Z,15.50
2022-10-09T10:49:49.159Z,15.60
2022-10-09T10:54:48.274Z,15.70
2022-10-09T10:59:46.986Z,15.80
2022-10-09T11:04:46.198Z,15.90
2022-10-09T11:09:45.095Z,16.00
2022-10-09T11:14:44.204Z,16.20
2022-10-09T11:19:45.421Z,16.30
2022-10-09T11:24:44.120Z,16.50
2022-10-09T11:29:43.045Z,16.60
2022-10-09T11:34:42.132Z,16.70
2022-10-09T11:39:41.313Z,16.80
2022-10-09T11:44:40.050Z,16.90
2022-10-09T11:49:38.954Z,17.00
2022-10-09T11:54:38.169Z,17.00
2022-10-09T11:59:37.141Z,17.10
2022-10-09T12:04:54.538Z,17.20
2022-10-09T12:09:37.059Z,17.40
2022-10-09T12:14:36.250Z,17.50
2022-10-09T12:19:35.069Z,17.60
2022-10-09T12:24:34.550Z,17.70
2022-10-09T12:29:33.056Z,17.80
2022-10-09T12:34:32.086Z,17.90
2022-10-09T12:39:33.607Z,18.10
2022-10-09T12:44:33.169Z,18.20
2022-10-09T12:49:32.157Z,18.40
2022-10-09T12:54:31.187Z,18.50
2022-10-09T12:59:30.225Z,18.60
2022-10-09T13:04:29.113Z,18.70
2022-10-09T13:09:28.221Z,18.80
2022-10-09T13:14:27.035Z,18.80
2022-10-09T13:19:26.014Z,18.90
2022-10-09T13:24:25.035Z,19.00
2022-10-09T13:29:24.410Z,19.30
2022-10-09T13:34:24.253Z,19.40
2022-10-09T13:39:23.366Z,19.50
2022-10-09T13:44:22.121Z,19.70
2022-10-09T13:49:21.137Z,19.90
2022-10-09T13:54:20.021Z,19.90
2022-10-09T13:59:19.229Z,20.00
2022-10-09T14:04:18.147Z,20.10
2022-10-09T14:09:17.164Z,20.10
2022-10-09T14:14:16.199Z,20.20
2022-10-09T14:19:15.189Z,20.20
2022-10-09T14:24:15.048Z,20.10
2022-10-09T14:29:14.214Z,20.00
2022-10-09T14:34:14.011Z,20.00
2022-10-09T14:39:13.726Z,20.00
2022-10-09T14:44:12.131Z,19.90
2022-10-09T14:49:11.361Z,19.90
2022-10-09T14:54:10.296Z,19.80
2022-10-09T14:59:09.427Z,19.70
2022-10-09T15:04:08.374Z,19.60
2022-10-09T15:09:07.352Z,19.50
2022-10-09T15:14:06.362Z,19.40
2022-10-09T15:19:05.489Z,19.20
2022-10-09T15:24:04.175Z,19.10
2022-10-09T15:29:03.471Z,19.00
2022-10-09T15:34:02.323Z,18.80
2022-10-09T15:39:03.398Z,18.70
2022-10-09T15:44:02.177Z,18.50
2022-10-09T15:49:01.284Z,18.20
2022-10-09T15:54:00.454Z,18.00
2022-10-09T15:58:59.313Z,17.80
2022-10-09T16:03:58.291Z,17.70
2022-10-09T16:08:57.384Z,17.50
2022-10-09T16:13:56.436Z,17.40
2022-10-09T16:18:55.157Z,17.20
2022-10-09T16:23:58.512Z,17.10
2022-10-09T16:28:55.399Z,16.90
2022-10-09T16:33:54.246Z,16.70
2022-10-09T16:38:53.237Z,16.60
2022-10-09T16:43:52.283Z,16.50
2022-10-09T16:48:51.251Z,16.30
2022-10-09T16:53:50.263Z,16.10
2022-10-09T16:58:49.284Z,15.90
2022-10-09T17:03:48.344Z,15.70
2022-10-09T17:08:47.356Z,15.60
2022-10-09T17:13:46.341Z,15.40
2022-10-09T17:18:47.439Z,15.20
2022-10-09T17:23:46.459Z,15.00
2022-10-09T17:28:45.920Z,14.80
2022-10-09T17:33:45.639Z,14.70
2022-10-09T17:38:44.428Z,14.60
2022-10-09T17:43:43.319Z,14.40
2022-10-09T17:48:44.730Z,14.30
2022-10-09T17:53:43.328Z,14.20
2022-10-09T17:58:43.899Z,14.10
2022-10-09T18:03:43.531Z,14.00
2022-10-09T18:08:42.400Z,14.00
2022-10-09T18:13:41.524Z,13.90
2022-10-09T18:18:40.418Z,13.80
2022-10-09T18:23:39.435Z,13.80
2022-10-09T18:28:38.448Z,13.70
2022-10-09T18:33:37.471Z,13.60
2022-10-09T18:38:36.596Z,13.50
2022-10-09T18:43:35.274Z,13.40
2022-10-09T18:48:34.292Z,13.40
2022-10-09T18:53:33.263Z,13.30
2022-10-09T18:58:32.519Z,13.20
2022-10-09T19:03:31.624Z,13.10
2022-10-09T19:08:30.365Z,13.10
2022-10-09T19:13:29.342Z,13.10
2022-10-09T19:18:28.357Z,13.10
2022-10-09T19:23:27.547Z,13.10
2022-10-09T19:28:26.750Z,13.00
2022-10-09T19:33:25.329Z,13.00
2022-10-09T19:38:24.428Z,12.90
2022-10-09T19:43:24.757Z,12.90
2022-10-09T19:48:23.950Z,12.90
2022-10-09T19:53:23.509Z,12.80
2022-10-09T19:58:22.501Z,12.70
2022-10-09T20:03:21.332Z,12.70
2022-10-09T20:08:20.609Z,12.70
2022-10-09T20:13:19.569Z,12.60
2022-10-09T20:18:21.408Z,12.60
2022-10-09T20:23:20.522Z,12.60
2022-10-09T20:28:19.442Z,12.60
2022-10-09T20:33:18.445Z,12.50
2022-10-09T20:38:20.859Z,12.50
2022-10-09T20:43:19.649Z,12.40
2022-10-09T20:48:18.565Z,12.40
2022-10-09T20:53:17.368Z,12.40
2022-10-09T20:58:16.362Z,12.40
2022-10-09T21:03:15.446Z,12.30
2022-10-09T21:08:14.388Z,12.30
2022-10-09T21:13:14.363Z,12.20
2022-10-09T21:18:13.531Z,12.20
2022-10-09T21:23:12.462Z,12.20
2022-10-09T21:28:11.502Z,12.10
2022-10-09T21:33:10.477Z,12.10
2022-10-09T21:38:09.303Z,12.00
2022-10-09T21:43:08.375Z,11.90
2022-10-09T21:48:07.529Z,11.80
2022-10-09T21:53:06.289Z,11.80
2022-10-09T21:58:05.538Z,11.60
2022-10-09T22:03:04.805Z,11.50
2022-10-09T22:08:03.582Z,11.50
2022-10-09T22:13:02.479Z,11.40
2022-10-09T22:18:01.584Z,11.40
2022-10-09T22:23:00.533Z,11.30
2022-10-09T22:27:59.616Z,11.20
2022-10-09T22:32:58.415Z,11.10
2022-10-09T22:37:57.516Z,11.10
2022-10-09T22:42:56.430Z,11.10
2022-10-09T22:47:55.440Z,11.00
2022-10-09T22:52:54.525Z,11.00
2022-10-09T22:57:53.493Z,10.90
2022-10-09T23:02:52.708Z,10.90
2022-10-09T23:07:52.520Z,10.80
2022-10-09T23:12:51.883Z,10.80
2022-10-09T23:17:51.571Z,10.80
2022-10-09T23:22:50.843Z,10.80
2022-10-09T23:27:53.469Z,10.80
2022-10-09T23:32:52.908Z,10.90
2022-10-09T23:37:52.541Z,10.90
2022-10-09T23:42:51.941Z,11.00
2022-10-09T23:47:51.570Z,11.10
2022-10-09T23:52:50.624Z,11.20
2022-10-09T23:57:49.610Z,11.30
